Time;durP1;ratioP1;P1;durP2;ratioP2;P2;SDS_P1;SDS_P2;PMS_P1;PMS_P2;Temp;Humidity;BMP_temperature;BMP_pressure;BME280_temperature;BME280_humidity;BME280_pressure;Samples;Min_cycle;Max_cycle;Signal;HPM_P1;HPM_P2
2022/05/27 00:01:08;;;;;;;7.65;3.05;;;;;;;;;;4861322;29;20049;-63
2022/05/27 00:03:34;;;;;;;5.28;3.10;;;;;;;;;;4877622;29;20037;-62
2022/05/27 00:06:00;;;;;;;6.43;3.08;;;;;;;;;;4877380;29;20490;-62
2022/05/27 00:08:26;;;;;;;6.93;3.30;;;;;;;;;;4877676;29;20041;-66
2022/05/27 00:10:54;;;;;;;6.75;3.38;;;;;;;;;;4877891;29;20033;-62
2022/05/27 00:13:20;;;;;;;4.85;3.00;;;;;;;;;;4877544;29;20033;-65
2022/05/27 00:15:46;;;;;;;7.35;3.20;;;;;;;;;;4877596;29;20033;-65
2022/05/27 00:18:12;;;;;;;7.35;3.85;;;;;;;;;;4877563;29;20041;-64
2022/05/27 00:20:39;;;;;;;5.10;3.10;;;;;;;;;;4877799;29;20108;-62
2022/05/27 00:23:05;;;;;;;5.75;3.10;;;;;;;;;;4877633;29;20033;-62
2022/05/27 00:25:31;;;;;;;7.97;3.40;;;;;;;;;;4860784;29;20196;-62
2022/05/27 00:27:57;;;;;;;6.95;3.50;;;;;;;;;;4877332;29;20033;-62
2022/05/27 00:30:24;;;;;;;8.90;3.22;;;;;;;;;;4877313;29;20029;-62
2022/05/27 00:32:50;;;;;;;7.38;3.42;;;;;;;;;;4877500;29;20048;-62
2022/05/27 00:35:17;;;;;;;5.82;3.10;;;;;;;;;;4877179;29;20032;-62
2022/05/27 00:37:43;;;;;;;7.05;3.45;;;;;;;;;;4877224;29;20521;-62
2022/05/27 00:40:10;;;;;;;5.57;3.50;;;;;;;;;;4877523;29;20381;-63
2022/05/27 00:42:40;;;;;;;6.22;3.33;;;;;;;;;;4877429;29;20032;-62
2022/05/27 00:45:07;;;;;;;6.10;3.60;;;;;;;;;;4877009;29;20501;-66
2022/05/27 00:47:34;;;;;;;5.90;3.53;;;;;;;;;;4877075;29;20041;-62
2022/05/27 00:50:02;;;;;;;8.45;3.00;;;;;;;;;;4877265;29;20430;-62
2022/05/27 00:52:30;;;;;;;6.05;3.30;;;;;;;;;;4877135;29;20029;-62
2022/05/27 00:54:56;;;;;;;6.25;3.10;;;;;;;;;;4877007;29;20036;-66
2022/05/27 00:57:31;;;;;;;7.63;3.33;;;;;;;;;;4876994;29;20084;-63
2022/05/27 01:00:04;;;;;;;6.65;2.60;;;;;;;;;;4876968;29;20049;-62
2022/05/27 01:02:30;;;;;;;5.45;3.00;;;;;;;;;;4876950;29;20561;-61
2022/05/27 01:04:58;;;;;;;8.77;2.80;;;;;;;;;;4877035;29;20036;-62
2022/05/27 01:07:24;;;;;;;5.63;3.10;;;;;;;;;;4876831;29;20060;-61
2022/05/27 01:09:51;;;;;;;4.38;2.97;;;;;;;;;;4876831;29;20040;-62
2022/05/27 01:12:36;;;;;;;6.63;2.90;;;;;;;;;;4876766;29;20073;-62
2022/05/27 01:15:10;;;;;;;5.47;3.15;;;;;;;;;;4876924;29;20127;-64
2022/05/27 01:17:43;;;;;;;5.70;3.15;;;;;;;;;;4876866;29;20406;-62
2022/05/27 01:20:19;;;;;;;5.03;2.90;;;;;;;;;;4877053;29;20029;-62
2022/05/27 01:23:03;;;;;;;4.72;3.22;;;;;;;;;;4876641;29;20037;-63
2022/05/27 01:25:48;;;;;;;5.07;3.05;;;;;;;;;;4876556;29;20040;-64
2022/05/27 01:28:32;;;;;;;6.00;3.10;;;;;;;;;;4876761;29;20036;-62
2022/05/27 01:31:10;;;;;;;4.60;3.05;;;;;;;;;;4876621;29;20132;-66
2022/05/27 01:33:54;;;;;;;3.78;2.67;;;;;;;;;;4876814;29;20028;-62
2022/05/27 01:36:27;;;;;;;3.97;2.50;;;;;;;;;;4876799;29;20520;-62
2022/05/27 01:38:59;;;;;;;3.20;2.33;;;;;;;;;;4876840;29;20025;-63
2022/05/27 01:41:38;;;;;;;3.40;2.35;;;;;;;;;;4876806;29;20025;-62
2022/05/27 01:44:11;;;;;;;6.95;3.13;;;;;;;;;;4876802;29;20080;-62
2022/05/27 01:46:42;;;;;;;5.50;3.05;;;;;;;;;;4876555;29;20029;-62
2022/05/27 01:49:27;;;;;;;7.03;2.60;;;;;;;;;;4876670;29;20041;-62
2022/05/27 01:52:01;;;;;;;4.38;2.85;;;;;;;;;;4876978;29;20029;-62
2022/05/27 01:54:38;;;;;;;4.25;1.98;;;;;;;;;;4859580;29;20042;-62
2022/05/27 01:57:07;;;;;;;6.35;3.22;;;;;;;;;;4876701;29;20041;-62
2022/05/27 01:59:51;;;;;;;5.30;3.50;;;;;;;;;;4879950;29;20081;-66
2022/05/27 02:02:20;;;;;;;5.43;2.97;;;;;;;;;;4881627;29;20036;-62
2022/05/27 02:04:48;;;;;;;3.33;2.20;;;;;;;;;;4882111;29;20107;-62
2022/05/27 02:07:18;;;;;;;3.85;2.78;;;;;;;;;;4880190;29;20037;-65
2022/05/27 02:09:46;;;;;;;3.88;2.40;;;;;;;;;;4880028;29;20029;-62
2022/05/27 02:12:25;;;;;;;5.07;2.70;;;;;;;;;;4879987;29;20064;-62
2022/05/27 02:14:54;;;;;;;5.80;2.45;;;;;;;;;;4879867;29;20033;-66
2022/05/27 02:17:27;;;;;;;3.50;2.70;;;;;;;;;;4879753;29;20080;-62
2022/05/27 02:19:53;;;;;;;4.55;2.80;;;;;;;;;;4879941;29;20104;-63
2022/05/27 02:22:25;;;;;;;7.65;2.70;;;;;;;;;;4879501;29;20451;-62
2022/05/27 02:25:02;;;;;;;4.28;2.50;;;;;;;;;;4879487;29;20104;-66
2022/05/27 02:27:32;;;;;;;3.78;3.17;;;;;;;;;;4879665;29;20107;-62
2022/05/27 02:30:00;;;;;;;7.72;2.75;;;;;;;;;;4879346;29;20032;-64
2022/05/27 02:32:29;;;;;;;3.58;2.42;;;;;;;;;;4879232;29;20064;-62
2022/05/27 02:35:07;;;;;;;7.40;2.72;;;;;;;;;;4879315;29;20025;-63
2022/05/27 02:37:35;;;;;;;9.32;2.92;;;;;;;;;;4879128;29;20041;-63
2022/05/27 02:40:02;;;;;;;5.32;2.72;;;;;;;;;;4879198;29;20071;-63
2022/05/27 02:42:34;;;;;;;4.63;3.08;;;;;;;;;;4879220;29;20033;-63
2022/05/27 02:45:00;;;;;;;4.50;2.88;;;;;;;;;;4878722;29;20053;-63
2022/05/27 02:47:50;;;;;;;4.28;2.83;;;;;;;;;;4879002;29;20029;-62
2022/05/27 02:50:22;;;;;;;5.95;2.78;;;;;;;;;;4803426;29;20050;-61
2022/05/27 02:52:48;;;;;;;4.07;2.90;;;;;;;;;;4802985;29;20569;-62
2022/05/27 02:55:18;;;;;;;6.00;3.13;;;;;;;;;;4802907;29;20511;-63
2022/05/27 02:57:46;;;;;;;7.53;3.15;;;;;;;;;;4803169;29;20039;-62
2022/05/27 03:00:14;;;;;;;6.45;3.13;;;;;;;;;;4802891;29;20141;-64
2022/05/27 03:02:40;;;;;;;6.80;3.15;;;;;;;;;;4803472;29;20799;-60
2022/05/27 03:05:07;;;;;;;7.13;2.95;;;;;;;;;;4803102;29;20046;-61
2022/05/27 03:07:59;;;;;;;7.05;3.30;;;;;;;;;;4802956;29;20047;-60
2022/05/27 03:10:28;;;;;;;8.77;3.63;;;;;;;;;;4776403;29;20070;-61
2022/05/27 03:13:02;;;;;;;5.70;2.72;;;;;;;;;;4802561;29;20039;-61
2022/05/27 03:15:28;;;;;;;4.95;2.55;;;;;;;;;;4803032;29;20043;-60
2022/05/27 03:18:01;;;;;;;5.45;2.60;;;;;;;;;;4802845;29;20446;-63
2022/05/27 03:20:42;;;;;;;7.72;3.08;;;;;;;;;;4803011;29;20058;-62
2022/05/27 03:23:14;;;;;;;5.20;2.45;;;;;;;;;;4802937;29;20035;-61
2022/05/27 03:26:00;;;;;;;6.15;2.90;;;;;;;;;;4802937;29;20514;-63
2022/05/27 03:28:26;;;;;;;6.95;2.90;;;;;;;;;;4877034;29;20052;-60
2022/05/27 03:31:00;;;;;;;7.38;3.10;;;;;;;;;;4878546;29;20104;-60
2022/05/27 03:33:34;;;;;;;5.03;2.70;;;;;;;;;;4860856;29;20410;-61
2022/05/27 03:36:11;;;;;;;7.03;3.13;;;;;;;;;;4878262;29;20037;-59
2022/05/27 03:38:40;;;;;;;4.97;3.00;;;;;;;;;;4878311;29;20072;-60
2022/05/27 03:41:15;;;;;;;6.75;3.03;;;;;;;;;;4878321;29;20120;-60
2022/05/27 03:43:44;;;;;;;10.68;2.88;;;;;;;;;;4877965;29;20036;-60
2022/05/27 03:46:10;;;;;;;6.20;2.92;;;;;;;;;;4878544;29;20045;-60
2022/05/27 03:48:37;;;;;;;6.35;3.10;;;;;;;;;;4877906;29;20621;-63
2022/05/27 03:51:18;;;;;;;4.38;2.70;;;;;;;;;;4878160;29;20040;-60
2022/05/27 03:56:29;;;;;;;4.97;2.58;;;;;;;;;;4878164;29;20401;-60
2022/05/27 03:58:55;;;;;;;5.07;2.97;;;;;;;;;;4877792;29;20062;-63
2022/05/27 04:01:22;;;;;;;4.50;2.83;;;;;;;;;;4877664;29;20026;-69
2022/05/27 04:03:48;;;;;;;6.00;2.50;;;;;;;;;;4877693;29;20029;-62
2022/05/27 04:06:15;;;;;;;6.45;2.88;;;;;;;;;;4877680;29;20029;-59
2022/05/27 04:08:41;;;;;;;5.28;2.60;;;;;;;;;;4877702;29;20064;-70
2022/05/27 04:11:07;;;;;;;8.02;3.38;;;;;;;;;;4878122;29;20032;-59
2022/05/27 04:13:33;;;;;;;7.25;3.17;;;;;;;;;;4877365;29;20398;-59
2022/05/27 04:15:59;;;;;;;6.03;2.83;;;;;;;;;;4877474;29;20560;-60
2022/05/27 04:18:25;;;;;;;5.82;2.67;;;;;;;;;;4877377;29;20061;-70
2022/05/27 04:20:51;;;;;;;8.32;3.50;;;;;;;;;;4876993;29;20474;-60
2022/05/27 04:23:17;;;;;;;4.63;2.75;;;;;;;;;;4877204;29;20049;-60
2022/05/27 04:25:46;;;;;;;5.05;2.60;;;;;;;;;;4877309;29;20033;-60
2022/05/27 04:28:12;;;;;;;6.07;3.05;;;;;;;;;;4877229;29;20509;-60
2022/05/27 04:30:38;;;;;;;6.70;3.78;;;;;;;;;;4877495;29;20078;-60
2022/05/27 04:33:04;;;;;;;7.93;3.33;;;;;;;;;;4877116;29;20033;-62
2022/05/27 04:35:31;;;;;;;3.70;2.80;;;;;;;;;;4877182;29;20036;-60
2022/05/27 04:37:57;;;;;;;7.07;3.45;;;;;;;;;;4877185;29;20037;-60
2022/05/27 04:40:23;;;;;;;8.02;3.05;;;;;;;;;;4877277;29;20124;-60
2022/05/27 04:42:49;;;;;;;6.95;3.20;;;;;;;;;;4876965;29;20064;-60
2022/05/27 04:45:15;;;;;;;6.72;3.20;;;;;;;;;;4877187;29;20045;-63
2022/05/27 04:47:41;;;;;;;4.97;2.60;;;;;;;;;;4877051;29;20172;-60
2022/05/27 04:50:10;;;;;;;7.85;3.03;;;;;;;;;;4877292;29;20497;-58
2022/05/27 04:52:36;;;;;;;6.80;3.20;;;;;;;;;;4877042;29;20108;-59
2022/05/27 04:55:06;;;;;;;10.05;3.55;;;;;;;;;;4877309;29;20402;-60
2022/05/27 04:57:34;;;;;;;9.57;3.85;;;;;;;;;;4877142;29;20486;-59
2022/05/27 05:00:02;;;;;;;5.40;3.40;;;;;;;;;;4860359;29;20363;-63
2022/05/27 05:02:28;;;;;;;6.80;3.45;;;;;;;;;;4877338;29;20029;-59
2022/05/27 05:04:56;;;;;;;6.88;3.00;;;;;;;;;;4877056;29;20104;-59
2022/05/27 05:07:23;;;;;;;7.93;3.08;;;;;;;;;;4877069;29;20107;-60
2022/05/27 05:09:50;;;;;;;8.00;3.70;;;;;;;;;;4877052;29;20029;-69
2022/05/27 05:12:22;;;;;;;7.32;3.33;;;;;;;;;;4876853;29;20462;-61
2022/05/27 05:14:48;;;;;;;6.47;3.33;;;;;;;;;;4877036;29;20037;-59
2022/05/27 05:17:14;;;;;;;5.68;3.33;;;;;;;;;;4876472;29;20056;-59
2022/05/27 05:19:40;;;;;;;7.25;3.40;;;;;;;;;;4876963;29;20061;-66
2022/05/27 05:22:06;;;;;;;6.30;3.30;;;;;;;;;;4876752;29;20029;-69
2022/05/27 05:24:32;;;;;;;8.85;3.55;;;;;;;;;;4876679;29;20056;-60
2022/05/27 05:26:59;;;;;;;7.32;2.85;;;;;;;;;;4876584;29;20044;-61
2022/05/27 05:29:25;;;;;;;8.68;3.55;;;;;;;;;;4876183;29;20025;-60
2022/05/27 05:31:51;;;;;;;6.00;2.80;;;;;;;;;;4877180;29;20387;-66
2022/05/27 05:34:18;;;;;;;4.32;3.00;;;;;;;;;;4880146;29;20450;-61
2022/05/27 05:36:44;;;;;;;4.88;2.78;;;;;;;;;;4879840;29;20072;-60
2022/05/27 05:39:10;;;;;;;6.63;2.65;;;;;;;;;;4879995;29;20366;-59
2022/05/27 05:41:37;;;;;;;4.90;2.78;;;;;;;;;;4880334;29;20083;-60
2022/05/27 05:44:04;;;;;;;8.57;2.63;;;;;;;;;;4880209;29;20077;-62
2022/05/27 05:46:32;;;;;;;7.13;2.70;;;;;;;;;;4879742;29;20404;-59
2022/05/27 05:48:58;;;;;;;5.90;2.42;;;;;;;;;;4880153;29;20052;-59
2022/05/27 05:51:25;;;;;;;6.65;2.50;;;;;;;;;;4880062;29;20081;-69
2022/05/27 05:53:51;;;;;;;7.55;2.58;;;;;;;;;;4880267;29;20029;-60
2022/05/27 05:56:17;;;;;;;7.68;2.70;;;;;;;;;;4894596;29;20048;-66
2022/05/27 05:58:43;;;;;;;12.55;3.15;;;;;;;;;;4879728;29;20051;-69
2022/05/27 06:01:09;;;;;;;5.68;2.60;;;;;;;;;;4887932;29;20029;-64
2022/05/27 06:03:35;;;;;;;6.07;2.75;;;;;;;;;;4887060;29;20033;-61
2022/05/27 06:06:01;;;;;;;5.70;2.92;;;;;;;;;;4887374;29;20029;-61
2022/05/27 06:08:27;;;;;;;5.47;2.70;;;;;;;;;;4887611;29;20067;-61
2022/05/27 06:10:53;;;;;;;4.85;2.70;;;;;;;;;;4889602;29;20390;-61
2022/05/27 06:13:20;;;;;;;4.60;2.40;;;;;;;;;;4895588;29;20088;-70
2022/05/27 06:15:46;;;;;;;6.70;2.67;;;;;;;;;;4889294;29;20218;-61
2022/05/27 06:18:15;;;;;;;12.50;2.50;;;;;;;;;;4893791;29;20040;-60
2022/05/27 06:20:41;;;;;;;11.65;2.88;;;;;;;;;;4898422;29;20072;-64
2022/05/27 06:23:07;;;;;;;8.30;2.60;;;;;;;;;;4897520;29;20029;-63
2022/05/27 06:25:33;;;;;;;4.03;2.42;;;;;;;;;;4897437;29;20047;-61
2022/05/27 06:36:15;;;;;;;4.47;2.20;;;;;;;;;;4887737;29;20081;-65
2022/05/27 06:38:41;;;;;;;6.78;2.47;;;;;;;;;;4886790;29;20381;-65
2022/05/27 06:41:07;;;;;;;5.38;2.38;;;;;;;;;;4897698;29;20040;-65
2022/05/27 06:43:33;;;;;;;7.65;2.65;;;;;;;;;;4896923;29;20497;-66
2022/05/27 06:46:00;;;;;;;6.30;2.50;;;;;;;;;;4897605;29;20044;-65
2022/05/27 06:48:27;;;;;;;5.50;2.00;;;;;;;;;;4897955;29;20033;-61
2022/05/27 06:50:53;;;;;;;8.68;2.10;;;;;;;;;;4897500;29;20052;-63
2022/05/27 06:53:19;;;;;;;6.47;2.00;;;;;;;;;;4897708;29;20035;-69
2022/05/27 06:55:49;;;;;;;4.10;1.85;;;;;;;;;;4897580;29;20087;-68
2022/05/27 06:58:16;;;;;;;5.47;1.80;;;;;;;;;;4897574;29;20395;-62
2022/05/27 07:00:42;;;;;;;6.15;2.08;;;;;;;;;;4897313;29;20029;-68
2022/05/27 07:03:09;;;;;;;7.25;1.95;;;;;;;;;;4896524;29;20143;-68
2022/05/27 07:05:35;;;;;;;4.28;1.90;;;;;;;;;;4897152;29;20032;-70
2022/05/27 07:10:27;;;;;;;5.13;2.50;;;;;;;;;;5086546;23;20636;-63
2022/05/27 07:12:58;;;;;;;5.40;2.28;;;;;;;;;;4879622;29;20048;-61
2022/05/27 07:15:24;;;;;;;5.38;1.70;;;;;;;;;;4896825;29;20024;-61
2022/05/27 07:17:50;;;;;;;3.97;1.90;;;;;;;;;;4896738;29;20032;-61
2022/05/27 07:20:16;;;;;;;3.45;1.70;;;;;;;;;;4896730;29;20103;-67
2022/05/27 07:22:43;;;;;;;4.00;1.77;;;;;;;;;;4896744;29;20060;-61
2022/05/27 07:25:13;;;;;;;4.97;2.00;;;;;;;;;;4896307;29;20051;-63
2022/05/27 07:27:40;;;;;;;4.13;1.80;;;;;;;;;;4896887;29;20025;-65
2022/05/27 07:30:06;;;;;;;5.30;1.60;;;;;;;;;;4896712;29;20064;-62
2022/05/27 07:32:33;;;;;;;4.57;1.35;;;;;;;;;;4896671;29;20060;-63
2022/05/27 07:34:59;;;;;;;1.98;1.38;;;;;;;;;;4896445;29;20037;-61
2022/05/27 07:37:25;;;;;;;4.40;1.67;;;;;;;;;;4896748;29;20032;-61
2022/05/27 07:39:51;;;;;;;2.95;1.70;;;;;;;;;;4896394;29;20033;-62
2022/05/27 07:42:17;;;;;;;4.75;1.70;;;;;;;;;;4894274;29;20043;-68
2022/05/27 07:44:43;;;;;;;8.60;1.80;;;;;;;;;;4896703;29;20067;-63
2022/05/27 07:47:09;;;;;;;3.33;1.40;;;;;;;;;;4896548;29;20091;-62
2022/05/27 07:49:35;;;;;;;4.55;1.60;;;;;;;;;;4896826;29;20076;-63
2022/05/27 07:52:02;;;;;;;5.90;1.58;;;;;;;;;;4896187;29;20070;-61
2022/05/27 07:54:29;;;;;;;3.78;1.73;;;;;;;;;;4896274;29;20092;-67
2022/05/27 07:56:55;;;;;;;3.08;1.50;;;;;;;;;;4894524;29;20037;-62
2022/05/27 07:59:21;;;;;;;5.90;1.63;;;;;;;;;;4895605;29;20770;-69
2022/05/27 08:01:47;;;;;;;3.42;1.67;;;;;;;;;;4895633;29;20036;-67
2022/05/27 08:04:13;;;;;;;24.15;12.30;;;;;;;;;;4895651;29;20040;-66
2022/05/27 08:06:40;;;;;;;14.30;8.43;;;;;;;;;;4895407;29;20473;-67
2022/05/27 08:09:06;;;;;;;12.95;6.07;;;;;;;;;;4895229;29;20402;-63
2022/05/27 08:11:32;;;;;;;13.77;6.32;;;;;;;;;;4878945;29;20049;-66
2022/05/27 08:14:00;;;;;;;9.05;4.60;;;;;;;;;;4876969;29;20064;-70
2022/05/27 08:16:26;;;;;;;6.10;2.90;;;;;;;;;;4876803;29;20127;-71
2022/05/27 08:18:52;;;;;;;6.78;3.05;;;;;;;;;;4876950;29;20044;-71
2022/05/27 08:21:18;;;;;;;5.07;3.08;;;;;;;;;;4877286;29;20165;-69
2022/05/27 08:23:45;;;;;;;5.47;2.75;;;;;;;;;;4877418;29;20415;-62
2022/05/27 08:26:11;;;;;;;9.00;2.53;;;;;;;;;;4876720;29;20668;-62
2022/05/27 08:28:37;;;;;;;9.43;2.40;;;;;;;;;;4877350;29;20060;-70
2022/05/27 08:31:04;;;;;;;4.88;2.03;;;;;;;;;;4877058;29;20112;-61
2022/05/27 08:38:01;;;;;;;4.57;2.25;;;;;;;;;;4877024;29;20041;-69
2022/05/27 08:39:04;;;;;;;5.10;1.80;;;;;;;;;;4876931;29;20043;-66
2022/05/27 08:41:53;;;;;;;6.00;1.88;;;;;;;;;;4876409;29;20418;-70
2022/05/27 08:44:23;;;;;;;4.20;1.50;;;;;;;;;;4876992;29;20508;-68
2022/05/27 08:47:00;;;;;;;5.93;1.38;;;;;;;;;;4876784;29;20052;-68
2022/05/27 08:49:34;;;;;;;4.13;1.33;;;;;;;;;;4876819;29;20473;-61
2022/05/27 08:52:22;;;;;;;2.75;1.48;;;;;;;;;;4876642;29;20033;-68
2022/05/27 08:59:26;;;;;;;3.83;1.55;;;;;;;;;;4876638;29;20032;-69
2022/05/27 09:00:38;;;;;;;5.05;1.42;;;;;;;;;;4877035;29;20088;-71
2022/05/27 09:03:07;;;;;;;5.60;1.50;;;;;;;;;;4859538;29;20404;-71
2022/05/27 09:05:33;;;;;;;4.47;1.45;;;;;;;;;;4877043;29;20033;-61
2022/05/27 09:08:01;;;;;;;5.15;1.33;;;;;;;;;;4879657;29;20028;-61
2022/05/27 09:10:46;;;;;;;4.18;1.33;;;;;;;;;;4880492;29;20112;-64
2022/05/27 09:13:27;;;;;;;5.15;1.38;;;;;;;;;;4880657;29;20044;-71
2022/05/27 09:15:56;;;;;;;6.10;1.25;;;;;;;;;;4880168;29;20043;-62
2022/05/27 09:18:41;;;;;;;6.35;1.50;;;;;;;;;;4880414;29;20055;-61
2022/05/27 09:21:30;;;;;;;5.18;1.45;;;;;;;;;;4880226;29;20053;-62
2022/05/27 09:23:56;;;;;;;3.45;1.45;;;;;;;;;;4786310;30;20051;-63
2022/05/27 09:26:37;;;;;;;3.13;1.30;;;;;;;;;;4786186;30;20092;-64
2022/05/27 09:29:06;;;;;;;4.38;1.73;;;;;;;;;;4786057;30;20047;-61
2022/05/27 09:31:41;;;;;;;4.13;1.15;;;;;;;;;;4786327;30;20637;-61
2022/05/27 09:34:12;;;;;;;1.90;1.10;;;;;;;;;;4786443;30;20042;-61
2022/05/27 09:36:39;;;;;;;1.70;1.05;;;;;;;;;;4786517;30;20070;-62
2022/05/27 09:39:10;;;;;;;3.88;1.10;;;;;;;;;;4786386;30;20409;-66
2022/05/27 09:41:36;;;;;;;3.40;1.08;;;;;;;;;;4785999;30;20184;-62
2022/05/27 09:44:21;;;;;;;2.63;1.10;;;;;;;;;;4786067;30;20110;-61
2022/05/27 09:46:47;;;;;;;5.30;1.20;;;;;;;;;;4785743;30;20039;-61
2022/05/27 09:49:13;;;;;;;5.90;1.20;;;;;;;;;;4785991;30;20043;-62
2022/05/27 09:51:39;;;;;;;3.75;1.08;;;;;;;;;;4786399;30;20031;-60
2022/05/27 09:54:24;;;;;;;5.22;1.27;;;;;;;;;;4785668;30;20039;-70
2022/05/27 09:56:59;;;;;;;3.00;1.15;;;;;;;;;;4785412;30;20067;-68
2022/05/27 09:59:28;;;;;;;3.97;1.15;;;;;;;;;;4786335;30;20028;-65
2022/05/27 10:02:13;;;;;;;2.92;1.20;;;;;;;;;;4870203;29;20041;-62
2022/05/27 10:04:54;;;;;;;4.18;1.30;;;;;;;;;;4879468;29;20033;-67
2022/05/27 10:07:25;;;;;;;4.30;1.45;;;;;;;;;;4879703;29;20058;-61
2022/05/27 10:09:51;;;;;;;2.97;1.15;;;;;;;;;;4879296;29;20040;-61
2022/05/27 10:12:34;;;;;;;3.13;1.15;;;;;;;;;;4879728;29;20104;-70
2022/05/27 10:15:00;;;;;;;3.60;1.40;;;;;;;;;;4879684;29;20025;-68
2022/05/27 10:17:32;;;;;;;3.28;1.40;;;;;;;;;;4879256;29;20052;-68
2022/05/27 10:20:34;;;;;;;2.15;1.20;;;;;;;;;;4878592;29;20031;-70
2022/05/27 10:23:03;;;;;;;3.63;1.23;;;;;;;;;;4785681;30;20031;-61
2022/05/27 10:25:40;;;;;;;5.78;1.30;;;;;;;;;;4785405;30;20089;-66
2022/05/27 10:28:07;;;;;;;3.60;1.10;;;;;;;;;;4785167;30;20114;-65
2022/05/27 10:30:35;;;;;;;3.05;1.67;;;;;;;;;;4785673;30;20148;-64
2022/05/27 10:33:21;;;;;;;3.00;1.48;;;;;;;;;;4785002;30;20830;-72
2022/05/27 10:35:48;;;;;;;4.53;1.60;;;;;;;;;;4785240;30;20110;-62
2022/05/27 10:38:39;;;;;;;3.30;1.10;;;;;;;;;;4785220;30;20635;-62
2022/05/27 10:41:27;;;;;;;7.38;1.50;;;;;;;;;;4783904;30;20117;-63
2022/05/27 10:44:00;;;;;;;3.38;1.50;;;;;;;;;;4784897;30;20067;-68
2022/05/27 10:46:30;;;;;;;2.65;1.15;;;;;;;;;;4785411;30;20171;-71
2022/05/27 10:49:05;;;;;;;2.53;1.30;;;;;;;;;;4776400;30;20070;-71
2022/05/27 10:51:34;;;;;;;5.93;1.90;;;;;;;;;;4767456;30;20056;-71
2022/05/27 10:54:03;;;;;;;4.63;1.40;;;;;;;;;;4767303;30;20089;-67
2022/05/27 10:56:35;;;;;;;4.30;1.45;;;;;;;;;;4794402;29;20038;-70
2022/05/27 11:02:07;;;;;;;3.88;1.70;;;;;;;;;;4860006;29;19915;-69
2022/05/27 11:04:45;;;;;;;4.10;1.58;;;;;;;;;;4860003;29;20034;-70
2022/05/27 11:07:14;;;;;;;3.25;1.63;;;;;;;;;;4859893;29;20025;-70
2022/05/27 11:09:40;;;;;;;5.65;1.40;;;;;;;;;;4859528;29;20029;-70
2022/05/27 11:12:09;;;;;;;3.67;1.42;;;;;;;;;;4859707;29;20038;-62
2022/05/27 11:17:36;;;;;;;2.47;1.27;;;;;;;;;;4859357;29;20094;-67
2022/05/27 11:20:07;;;;;;;3.45;1.40;;;;;;;;;;4859546;29;20021;-69
2022/05/27 11:22:37;;;;;;;5.05;1.40;;;;;;;;;;4859603;29;20075;-69
2022/05/27 11:25:22;;;;;;;3.10;1.30;;;;;;;;;;4842554;29;20065;-67
2022/05/27 11:28:00;;;;;;;5.22;1.27;;;;;;;;;;4859494;29;20074;-67
2022/05/27 11:30:41;;;;;;;4.70;1.05;;;;;;;;;;4863810;29;20523;-65
2022/05/27 11:33:14;;;;;;;4.75;1.50;;;;;;;;;;4866703;29;20022;-61
2022/05/27 11:35:49;;;;;;;7.50;2.20;;;;;;;;;;4866654;29;20040;-66
2022/05/27 11:38:27;;;;;;;7.80;2.08;;;;;;;;;;4868249;29;20026;-68
2022/05/27 11:41:00;;;;;;;4.70;1.85;;;;;;;;;;4860282;29;20040;-63
2022/05/27 11:43:44;;;;;;;7.43;1.98;;;;;;;;;;4859459;29;20042;-63
2022/05/27 11:46:34;;;;;;;3.65;1.45;;;;;;;;;;4859148;29;20782;-64
2022/05/27 11:49:19;;;;;;;4.40;1.58;;;;;;;;;;4859337;29;20128;-62
2022/05/27 11:52:03;;;;;;;4.15;1.70;;;;;;;;;;4859377;29;20089;-69
2022/05/27 11:54:47;;;;;;;6.00;1.55;;;;;;;;;;4859351;29;20108;-61
2022/05/27 11:57:19;;;;;;;7.00;1.67;;;;;;;;;;4859212;29;20053;-67
2022/05/27 11:59:55;;;;;;;8.10;1.75;;;;;;;;;;4841547;29;20513;-62
2022/05/27 12:02:30;;;;;;;6.43;1.60;;;;;;;;;;4858568;29;20026;-62
2022/05/27 12:05:01;;;;;;;3.85;1.45;;;;;;;;;;4859504;29;20033;-65
2022/05/27 12:07:30;;;;;;;3.83;1.45;;;;;;;;;;4858817;29;20030;-67
2022/05/27 12:10:01;;;;;;;9.63;1.65;;;;;;;;;;4841695;29;20114;-63
2022/05/27 12:12:33;;;;;;;5.55;1.60;;;;;;;;;;4865006;29;20181;-71
2022/05/27 12:15:02;;;;;;;7.47;1.60;;;;;;;;;;4870374;29;20040;-70
2022/05/27 12:17:37;;;;;;;7.95;2.70;;;;;;;;;;4867576;29;20056;-68
2022/05/27 12:20:04;;;;;;;5.00;2.10;;;;;;;;;;4867281;29;20564;-70
2022/05/27 12:22:35;;;;;;;4.45;1.67;;;;;;;;;;4865637;29;20165;-66
2022/05/27 12:25:07;;;;;;;6.00;1.98;;;;;;;;;;4861204;29;20052;-67
2022/05/27 12:27:34;;;;;;;4.50;1.65;;;;;;;;;;4864506;29;20048;-60
2022/05/27 12:30:01;;;;;;;6.15;1.92;;;;;;;;;;4866324;29;20029;-66
2022/05/27 12:32:28;;;;;;;4.88;1.90;;;;;;;;;;4865759;29;20486;-70
2022/05/27 12:35:14;;;;;;;4.95;1.55;;;;;;;;;;4866274;29;20033;-59
2022/05/27 12:37:58;;;;;;;3.95;1.70;;;;;;;;;;4866694;29;20049;-70
2022/05/27 12:40:33;;;;;;;8.88;2.40;;;;;;;;;;4862486;29;20033;-71
2022/05/27 12:43:11;;;;;;;9.52;1.98;;;;;;;;;;4866638;29;20037;-60
2022/05/27 12:45:38;;;;;;;3.38;1.88;;;;;;;;;;4870263;29;20053;-65
2022/05/27 12:48:05;;;;;;;6.75;2.08;;;;;;;;;;4855504;29;20409;-69
2022/05/27 12:50:33;;;;;;;5.45;1.90;;;;;;;;;;4876275;29;20050;-68
2022/05/27 12:53:20;;;;;;;10.32;2.35;;;;;;;;;;4875826;29;20037;-69
2022/05/27 13:01:26;;;;;;;9.57;2.25;;;;;;;;;;4859943;29;20144;-67
2022/05/27 13:03:53;;;;;;;5.35;2.20;;;;;;;;;;4857245;29;20097;-66
2022/05/27 13:06:25;;;;;;;8.25;2.38;;;;;;;;;;4857105;29;20025;-66
2022/05/27 13:08:51;;;;;;;;;;;;;;;;;;4857155;29;20398;-60
2022/05/27 13:11:35;;;;;;;7.30;2.50;;;;;;;;;;4840197;29;19924;-67
2022/05/27 13:14:04;;;;;;;7.15;2.33;;;;;;;;;;4857137;29;20090;-66
2022/05/27 13:16:42;;;;;;;8.02;2.80;;;;;;;;;;4857237;29;20052;-60
2022/05/27 13:19:23;;;;;;;5.43;2.00;;;;;;;;;;4857628;29;20033;-62
2022/05/27 13:21:52;;;;;;;5.82;2.00;;;;;;;;;;4856936;29;20053;-65
2022/05/27 13:24:18;;;;;;;6.15;2.53;;;;;;;;;;4856750;29;20065;-69
2022/05/27 13:26:45;;;;;;;4.68;2.28;;;;;;;;;;4856680;29;20081;-69
2022/05/27 13:29:26;;;;;;;4.90;1.88;;;;;;;;;;4856571;29;20085;-65
2022/05/27 13:31:55;;;;;;;6.68;2.15;;;;;;;;;;4856980;29;20389;-69
2022/05/27 13:34:26;;;;;;;7.70;2.22;;;;;;;;;;4856222;29;20037;-58
2022/05/27 13:36:56;;;;;;;5.65;2.10;;;;;;;;;;4856775;29;20041;-65
2022/05/27 13:39:25;;;;;;;7.22;2.10;;;;;;;;;;4855960;29;20026;-69
2022/05/27 13:41:52;;;;;;;6.55;2.00;;;;;;;;;;4856140;29;20053;-68
2022/05/27 13:44:21;;;;;;;6.60;2.13;;;;;;;;;;4856964;29;20083;-69
2022/05/27 13:47:03;;;;;;;6.47;2.38;;;;;;;;;;4863605;29;20116;-68
2022/05/27 13:49:33;;;;;;;6.47;2.15;;;;;;;;;;4866114;29;20104;-68
2022/05/27 13:52:01;;;;;;;4.57;1.98;;;;;;;;;;4864500;29;20523;-64
2022/05/27 13:54:35;;;;;;;7.65;2.90;;;;;;;;;;4867408;29;20025;-68
2022/05/27 13:57:05;;;;;;;15.65;2.95;;;;;;;;;;4868536;29;20132;-67
2022/05/27 13:59:32;;;;;;;7.88;2.60;;;;;;;;;;4874529;29;20145;-71
2022/05/27 14:01:59;;;;;;;9.32;2.67;;;;;;;;;;4878858;29;20036;-69
2022/05/27 14:04:44;;;;;;;5.40;2.35;;;;;;;;;;4879753;29;20028;-70
2022/05/27 14:07:19;;;;;;;5.38;2.80;;;;;;;;;;4879787;29;20032;-64
2022/05/27 14:09:47;;;;;;;7.10;2.60;;;;;;;;;;4879617;29;20040;-70
2022/05/27 14:12:18;;;;;;;9.68;2.78;;;;;;;;;;4879414;29;20056;-70
2022/05/27 14:14:46;;;;;;;11.38;2.90;;;;;;;;;;4862180;29;20041;-70
2022/05/27 14:17:16;;;;;;;6.97;3.67;;;;;;;;;;4879331;29;20033;-69
2022/05/27 14:19:42;;;;;;;7.10;2.83;;;;;;;;;;4879430;29;20028;-64
2022/05/27 14:24:56;;;;;;;7.75;3.28;;;;;;;;;;4879302;29;20770;-67
2022/05/27 14:27:25;;;;;;;23.33;3.67;;;;;;;;;;4875018;29;20057;-67
2022/05/27 14:29:53;;;;;;;17.13;3.53;;;;;;;;;;4864224;29;20069;-64
2022/05/27 14:32:22;;;;;;;6.93;3.40;;;;;;;;;;4878718;29;20124;-68
2022/05/27 14:34:50;;;;;;;6.82;2.50;;;;;;;;;;4879266;29;20145;-70
2022/05/27 14:37:19;;;;;;;7.75;2.38;;;;;;;;;;4879036;29;20108;-68
2022/05/27 14:39:45;;;;;;;7.65;1.95;;;;;;;;;;4879025;29;20065;-68
2022/05/27 14:42:12;;;;;;;11.27;2.70;;;;;;;;;;4879123;29;20060;-63
2022/05/27 14:44:42;;;;;;;9.30;1.88;;;;;;;;;;4869995;29;20033;-65
2022/05/27 14:47:11;;;;;;;5.18;1.90;;;;;;;;;;4867726;29;20058;-64
2022/05/27 14:49:52;;;;;;;8.93;2.33;;;;;;;;;;4875991;29;20025;-65
2022/05/27 14:52:23;;;;;;;8.10;2.47;;;;;;;;;;4862676;29;20033;-66
2022/05/27 14:54:52;;;;;;;8.77;2.30;;;;;;;;;;4860152;29;20021;-68
2022/05/27 14:57:22;;;;;;;3.90;1.98;;;;;;;;;;4860117;29;20043;-68
2022/05/27 14:59:54;;;;;;;5.82;2.08;;;;;;;;;;4862148;29;20029;-62
2022/05/27 15:02:25;;;;;;;5.65;2.40;;;;;;;;;;4869238;29;20055;-67
2022/05/27 15:04:56;;;;;;;6.97;2.13;;;;;;;;;;4864031;29;20064;-65
2022/05/27 15:07:23;;;;;;;6.90;2.22;;;;;;;;;;4867907;29;20025;-67
2022/05/27 15:10:04;;;;;;;7.28;2.10;;;;;;;;;;4860209;29;20034;-62
2022/05/27 15:12:32;;;;;;;6.88;2.35;;;;;;;;;;4859425;29;20124;-66
2022/05/27 15:14:59;;;;;;;6.00;2.13;;;;;;;;;;4868993;29;20033;-69
2022/05/27 15:17:27;;;;;;;7.72;2.30;;;;;;;;;;4867065;29;20045;-68
2022/05/27 15:19:59;;;;;;;9.20;2.47;;;;;;;;;;4872196;29;20021;-66
2022/05/27 15:22:26;;;;;;;7.57;2.42;;;;;;;;;;4866953;29;20032;-67
2022/05/27 15:24:58;;;;;;;7.60;2.58;;;;;;;;;;4867538;29;20397;-67
2022/05/27 15:33:17;;;;;;;7.50;2.50;;;;;;;;;;4868350;29;20123;-70
2022/05/27 15:35:46;;;;;;;5.45;2.45;;;;;;;;;;4868370;29;20018;-62
2022/05/27 15:38:13;;;;;;;6.18;2.58;;;;;;;;;;4869051;29;20029;-64
2022/05/27 15:40:40;;;;;;;6.30;2.50;;;;;;;;;;4877716;29;20036;-68
2022/05/27 15:43:14;;;;;;;7.20;2.55;;;;;;;;;;4877722;29;20061;-65